createdAt,value
2018-09-17T00:00:10.234Z,100846.53
2018-09-17T00:01:16.468Z,100846.61
2018-09-17T00:02:22.722Z,100843.91
2018-09-17T00:03:29.020Z,100844.03
2018-09-17T00:04:34.981Z,100843.86
2018-09-17T00:05:41.200Z,100841.08
2018-09-17T00:06:47.413Z,100840.78
2018-09-17T00:07:53.674Z,100838.91
2018-09-17T00:08:59.655Z,100842.84
2018-09-17T00:10:05.008Z,100839.67
2018-09-17T00:11:10.952Z,100835.19
2018-09-17T00:12:16.937Z,100841.51
2018-09-17T00:13:23.187Z,100838.92
2018-09-17T00:14:29.652Z,100839.30
2018-09-17T00:15:35.969Z,100836.74
2018-09-17T00:16:42.726Z,100835.79
2018-09-17T00:17:48.714Z,100837.51
2018-09-17T00:18:54.956Z,100839.45
2018-09-17T00:20:01.161Z,100836.91
2018-09-17T00:21:07.401Z,100833.97
2018-09-17T00:22:13.375Z,100838.13
2018-09-17T00:23:19.333Z,100840.81
2018-09-17T00:24:25.575Z,100839.11
2018-09-17T00:25:31.806Z,100840.78
2018-09-17T00:26:38.067Z,100839.78
2018-09-17T00:27:44.361Z,100847.76
2018-09-17T00:28:50.618Z,100846.40
2018-09-17T00:29:56.888Z,100846.85
2018-09-17T00:31:03.103Z,100854.39
2018-09-17T00:32:09.361Z,100853.24
2018-09-17T00:33:15.615Z,100858.53
2018-09-17T00:34:21.850Z,100857.02
2018-09-17T00:35:28.096Z,100860.08
2018-09-17T00:36:34.321Z,100858.94
2018-09-17T00:37:40.588Z,100862.08
2018-09-17T00:38:46.827Z,100862.68
2018-09-17T00:39:53.069Z,100860.39
2018-09-17T00:40:59.290Z,100860.95
2018-09-17T00:42:05.496Z,100873.68
2018-09-17T00:43:11.774Z,100864.73
2018-09-17T00:44:18.017Z,100867.95
2018-09-17T00:45:24.296Z,100866.66
2018-09-17T00:46:30.528Z,100867.09
2018-09-17T00:47:36.785Z,100867.70
2018-09-17T00:48:43.001Z,100868.63
2018-09-17T00:49:49.224Z,100865.86
2018-09-17T00:50:55.169Z,100870.88
2018-09-17T00:52:01.484Z,100869.75
2018-09-17T00:53:07.796Z,100866.80
2018-09-17T00:54:14.069Z,100867.31
2018-09-17T00:55:20.291Z,100866.83
2018-09-17T00:56:26.552Z,100863.53
2018-09-17T00:57:32.847Z,100864.84
2018-09-17T00:58:39.122Z,100863.45
2018-09-17T00:59:45.356Z,100866.23
2018-09-17T01:00:51.392Z,100862.34
2018-09-17T01:01:55.993Z,100861.84
2018-09-17T01:03:01.973Z,100862.34
2018-09-17T01:04:08.198Z,100863.87
2018-09-17T01:05:14.428Z,100866.42
2018-09-17T01:06:20.787Z,100862.91
2018-09-17T01:07:26.734Z,100858.66
2018-09-17T01:08:32.982Z,100857.46
2018-09-17T01:09:38.700Z,100852.66
2018-09-17T01:10:44.941Z,100850.70
2018-09-17T01:11:51.837Z,100848.58
2018-09-17T01:12:57.804Z,100849.78
2018-09-17T01:14:04.056Z,100853.11
2018-09-17T01:15:10.309Z,100844.33
2018-09-17T01:16:16.524Z,100851.28
2018-09-17T01:17:22.515Z,100847.50
2018-09-17T01:18:28.771Z,100852.06
2018-09-17T01:19:34.710Z,100844.92
2018-09-17T01:20:40.961Z,100845.59
2018-09-17T01:21:47.201Z,100844.05
2018-09-17T01:22:53.224Z,100847.24
2018-09-17T01:23:59.449Z,100845.02
2018-09-17T01:25:05.344Z,100852.03
2018-09-17T01:26:11.621Z,100847.88
2018-09-17T01:27:17.911Z,100848.65
2018-09-17T01:28:24.149Z,100854.98
2018-09-17T01:29:30.384Z,100856.76
2018-09-17T01:30:37.269Z,100854.69
2018-09-17T01:31:43.642Z,100863.00
2018-09-17T01:32:49.896Z,100863.92
2018-09-17T01:33:56.158Z,100866.70
2018-09-17T01:35:02.453Z,100869.14
2018-09-17T01:36:08.676Z,100870.64
2018-09-17T01:37:14.288Z,100865.36
2018-09-17T01:38:20.337Z,100866.21
2018-09-17T01:39:26.805Z,100863.92
2018-09-17T01:40:33.060Z,100864.77
2018-09-17T01:41:39.041Z,100863.34
2018-09-17T01:42:45.037Z,100862.99
2018-09-17T01:43:51.302Z,100869.45
2018-09-17T01:44:57.523Z,100865.94
2018-09-17T01:46:03.578Z,100863.09
2018-09-17T01:47:09.975Z,100861.22
2018-09-17T01:48:16.290Z,100859.05
2018-09-17T01:49:22.557Z,100854.29
2018-09-17T01:50:28.795Z,100852.41
2018-09-17T01:51:34.667Z,100855.39
2018-09-17T01:52:40.630Z,100847.36
2018-09-17T01:53:46.888Z,100852.78
2018-09-17T01:54:53.117Z,100848.55
2018-09-17T01:55:59.324Z,100847.23
2018-09-17T01:57:04.952Z,100850.42
2018-09-17T01:58:11.216Z,100851.84
2018-09-17T01:59:17.259Z,100855.39
2018-09-17T02:00:23.150Z,100852.06
2018-09-17T02:01:29.383Z,100857.34
2018-09-17T02:02:35.613Z,100851.73
2018-09-17T02:03:41.869Z,100847.06
2018-09-17T02:04:48.117Z,100843.55
2018-09-17T02:05:54.348Z,100848.60
2018-09-17T02:07:00.593Z,100845.67
2018-09-17T02:08:06.906Z,100841.59
2018-09-17T02:09:13.350Z,100837.10
2018-09-17T02:10:20.718Z,100840.77
2018-09-17T02:11:26.984Z,100839.30
2018-09-17T02:12:32.900Z,100846.89
2018-09-17T02:13:38.921Z,100832.05
2018-09-17T02:14:44.900Z,100838.95
2018-09-17T02:15:50.833Z,100838.05
2018-09-17T02:16:57.050Z,100835.91
2018-09-17T02:18:03.314Z,100833.86
2018-09-17T02:19:09.580Z,100835.30
2018-09-17T02:20:15.811Z,100829.66
2018-09-17T02:21:21.821Z,100840.88
2018-09-17T02:22:28.030Z,100837.08
2018-09-17T02:23:34.266Z,100845.09
2018-09-17T02:24:40.296Z,100844.91
2018-09-17T02:25:46.539Z,100855.72
2018-09-17T02:26:52.776Z,100859.54
2018-09-17T02:27:59.012Z,100860.09
2018-09-17T02:29:04.565Z,100867.63
2018-09-17T02:30:10.156Z,100865.31
2018-09-17T02:31:16.136Z,100862.75
2018-09-17T02:32:22.422Z,100866.80
2018-09-17T02:33:28.661Z,100865.05
2018-09-17T02:34:34.919Z,100864.20
2018-09-17T02:35:41.153Z,100863.32
2018-09-17T02:36:47.132Z,100861.11
2018-09-17T02:37:53.414Z,100869.94
2018-09-17T02:38:59.659Z,100867.23
2018-09-17T02:40:05.043Z,100866.14
2018-09-17T02:41:11.051Z,100869.73
2018-09-17T02:42:17.008Z,100861.28
2018-09-17T02:43:23.236Z,100863.23
2018-09-17T02:44:29.224Z,100862.18
2018-09-17T02:45:36.528Z,100862.03
2018-09-17T02:46:42.767Z,100858.69
2018-09-17T02:47:48.978Z,100855.73
2018-09-17T02:48:55.179Z,100857.20
2018-09-17T02:50:01.431Z,100854.72
2018-09-17T02:51:07.668Z,100851.48
2018-09-17T02:52:13.900Z,100854.25
2018-09-17T02:53:20.145Z,100853.31
2018-09-17T02:54:26.412Z,100851.55
2018-09-17T02:55:32.657Z,100852.34
2018-09-17T02:56:38.640Z,100855.91
2018-09-17T02:57:44.899Z,100862.53
2018-09-17T02:58:51.132Z,100862.34
2018-09-17T02:59:57.387Z,100867.97
2018-09-17T03:01:03.657Z,100865.41
2018-09-17T03:02:09.868Z,100872.64
2018-09-17T03:03:16.147Z,100877.01
2018-09-17T03:04:22.406Z,100878.78
2018-09-17T03:05:28.409Z,100879.22
2018-09-17T03:06:34.656Z,100883.09
2018-09-17T03:07:40.881Z,100884.82
2018-09-17T03:08:47.121Z,100878.66
2018-09-17T03:09:53.370Z,100880.89
2018-09-17T03:10:59.649Z,100876.80
2018-09-17T03:12:05.589Z,100882.09
2018-09-17T03:13:11.821Z,100880.52
2018-09-17T03:14:17.431Z,100880.23
2018-09-17T03:15:34.524Z,100883.19
2018-09-17T03:16:39.814Z,100884.91
2018-09-17T03:17:45.806Z,100886.77
2018-09-17T03:18:51.684Z,100885.04
2018-09-17T03:19:57.933Z,100889.16
2018-09-17T03:21:03.874Z,100888.09
2018-09-17T03:22:09.464Z,100883.91
2018-09-17T03:23:15.435Z,100886.27
2018-09-17T03:24:21.773Z,100884.23
2018-09-17T03:25:28.158Z,100886.13
2018-09-17T03:26:34.097Z,100876.99
2018-09-17T03:27:40.033Z,100875.25
2018-09-17T03:28:46.290Z,100876.38
2018-09-17T03:29:52.588Z,100873.12
2018-09-17T03:30:58.846Z,100867.49
2018-09-17T03:32:04.782Z,100873.19
2018-09-17T03:33:10.998Z,100869.23
2018-09-17T03:34:16.937Z,100874.86
2018-09-17T03:35:22.558Z,100871.25
2018-09-17T03:36:28.444Z,100875.72
2018-09-17T03:37:34.329Z,100874.83
2018-09-17T03:38:40.230Z,100875.06
2018-09-17T03:39:46.495Z,100876.34
2018-09-17T03:40:52.494Z,100869.73
2018-09-17T03:41:58.731Z,100880.18
2018-09-17T03:43:04.969Z,100875.32
2018-09-17T03:44:11.237Z,100875.23
2018-09-17T03:45:17.498Z,100877.99
2018-09-17T03:46:23.736Z,100880.08
2018-09-17T03:47:30.040Z,100876.58
2018-09-17T03:48:36.297Z,100878.77
2018-09-17T03:49:42.533Z,100882.18
2018-09-17T03:50:48.788Z,100881.73
2018-09-17T03:51:55.036Z,100883.09
2018-09-17T03:53:01.254Z,100882.05
2018-09-17T03:54:06.828Z,100876.09
2018-09-17T03:55:13.077Z,100875.07
2018-09-17T03:56:19.313Z,100876.54
2018-09-17T03:57:25.544Z,100869.50
2018-09-17T03:58:31.901Z,100870.39
2018-09-17T03:59:38.126Z,100867.09
2018-09-17T04:00:44.369Z,100863.11
2018-09-17T04:01:50.625Z,100870.41
2018-09-17T04:02:56.825Z,100869.02
2018-09-17T04:04:02.741Z,100861.59
2018-09-17T04:05:08.631Z,100856.02
2018-09-17T04:06:14.908Z,100861.48
2018-09-17T04:07:21.189Z,100860.06
2018-09-17T04:08:27.349Z,100861.38
2018-09-17T04:09:33.554Z,100859.14
2018-09-17T04:10:39.850Z,100860.13
2018-09-17T04:11:46.079Z,100862.02
2018-09-17T04:12:52.273Z,100853.84
2018-09-17T04:13:58.485Z,100859.41
2018-09-17T04:15:04.331Z,100858.09
2018-09-17T04:16:10.592Z,100856.47
2018-09-17T04:17:16.817Z,100858.81
2018-09-17T04:18:24.066Z,100858.92
2018-09-17T04:19:30.294Z,100856.42
2018-09-17T04:20:36.540Z,100860.07
2018-09-17T04:21:42.748Z,100856.42
2018-09-17T04:22:48.953Z,100858.06
2018-09-17T04:23:55.190Z,100871.48
2018-09-17T04:25:01.100Z,100864.98
2018-09-17T04:26:07.052Z,100859.92
2018-09-17T04:27:13.261Z,100866.94
2018-09-17T04:28:19.473Z,100869.19
2018-09-17T04:29:25.443Z,100872.27
2018-09-17T04:30:31.908Z,100871.53
2018-09-17T04:31:37.914Z,100881.45
2018-09-17T04:32:44.355Z,100887.32
2018-09-17T04:33:49.924Z,100889.92
2018-09-17T04:34:56.141Z,100889.41
2018-09-17T04:36:02.398Z,100888.48
2018-09-17T04:37:08.720Z,100891.98
2018-09-17T04:38:15.949Z,100894.72
2018-09-17T04:39:22.000Z,100890.67
2018-09-17T04:40:28.392Z,100888.98
2018-09-17T04:41:34.543Z,100891.58
2018-09-17T04:42:40.501Z,100890.61
2018-09-17T04:43:47.094Z,100892.14
2018-09-17T04:44:54.267Z,100890.02
2018-09-17T04:46:01.546Z,100892.23
2018-09-17T04:47:08.654Z,100893.72
2018-09-17T04:48:14.615Z,100892.48
2018-09-17T04:49:20.896Z,100887.34
2018-09-17T04:50:27.113Z,100889.42
2018-09-17T04:51:33.345Z,100891.28
2018-09-17T04:52:39.304Z,100888.79
2018-09-17T04:53:45.380Z,100894.86
2018-09-17T04:54:52.662Z,100892.81
2018-09-17T04:55:58.942Z,100893.76
2018-09-17T04:57:04.917Z,100890.99
2018-09-17T04:58:12.040Z,100894.48
2018-09-17T04:59:17.980Z,100892.20
2018-09-17T05:00:24.199Z,100890.42
2018-09-17T05:01:30.422Z,100890.04
2018-09-17T05:02:36.640Z,100890.28
2018-09-17T05:03:42.866Z,100890.91
2018-09-17T05:04:49.990Z,100887.67
2018-09-17T05:05:57.196Z,100886.09
2018-09-17T05:07:03.438Z,100889.70
2018-09-17T05:08:09.662Z,100889.35
2018-09-17T05:09:15.897Z,100891.81
2018-09-17T05:10:22.095Z,100890.38
2018-09-17T05:11:29.262Z,100896.58
2018-09-17T05:12:36.133Z,100896.59
2018-09-17T05:13:42.325Z,100897.36
2018-09-17T05:14:48.319Z,100890.41
2018-09-17T05:15:54.268Z,100896.18
2018-09-17T05:17:00.508Z,100892.58
2018-09-17T05:18:07.644Z,100890.25
2018-09-17T05:19:14.800Z,100892.11
2018-09-17T05:20:21.957Z,100886.25
2018-09-17T05:21:29.104Z,100884.63
2018-09-17T05:22:35.333Z,100887.45
2018-09-17T05:23:41.572Z,100888.39
2018-09-17T05:24:47.823Z,100890.27
2018-09-17T05:25:54.048Z,100893.97
2018-09-17T05:27:00.290Z,100891.95
2018-09-17T05:28:06.524Z,100890.58
2018-09-17T05:29:12.811Z,100897.80
2018-09-17T05:30:19.052Z,100893.58
2018-09-17T05:31:25.316Z,100895.67
2018-09-17T05:32:31.640Z,100895.06
2018-09-17T05:33:37.869Z,100897.46
2018-09-17T05:34:44.085Z,100898.13
2018-09-17T05:35:50.337Z,100902.06
2018-09-17T05:36:57.461Z,100900.75
2018-09-17T05:38:04.330Z,100904.50
2018-09-17T05:39:09.916Z,100901.89
2018-09-17T05:40:16.835Z,100904.79
2018-09-17T05:41:23.831Z,100911.27
2018-09-17T05:42:30.220Z,100904.56
2018-09-17T05:43:36.222Z,100904.93
2018-09-17T05:44:42.200Z,100905.76
2018-09-17T05:45:48.513Z,100903.27
2018-09-17T05:46:54.958Z,100913.67
2018-09-17T05:48:01.177Z,100904.81
2018-09-17T05:49:07.410Z,100911.27
2018-09-17T05:50:13.740Z,100910.22
2018-09-17T05:51:19.697Z,100911.48
2018-09-17T05:52:25.669Z,100912.69
2018-09-17T05:53:31.623Z,100909.02
2018-09-17T05:54:38.451Z,100911.42
2018-09-17T05:55:44.688Z,100908.59
2018-09-17T05:56:50.972Z,100903.73
2018-09-17T05:57:56.940Z,100909.23
2018-09-17T05:59:02.926Z,100903.43
2018-09-17T06:00:09.532Z,100901.57
2018-09-17T06:01:15.762Z,100896.83
2018-09-17T06:02:21.766Z,100895.58
2018-09-17T06:03:27.765Z,100892.38
2018-09-17T06:04:33.709Z,100893.16
2018-09-17T06:05:40.017Z,100886.06
2018-09-17T06:06:46.191Z,100891.52
2018-09-17T06:07:53.307Z,100889.52
2018-09-17T06:08:59.530Z,100894.58
2018-09-17T06:10:04.891Z,100891.20
2018-09-17T06:11:11.130Z,100890.36
2018-09-17T06:12:18.026Z,100894.77
2018-09-17T06:13:23.996Z,100898.43
2018-09-17T06:14:29.974Z,100899.78
2018-09-17T06:15:35.938Z,100900.55
2018-09-17T06:16:41.894Z,100898.21
2018-09-17T06:17:48.198Z,100902.15
2018-09-17T06:18:54.417Z,100904.55
2018-09-17T06:20:00.693Z,100905.98
2018-09-17T06:21:07.305Z,100908.27
2018-09-17T06:22:13.281Z,100910.23
2018-09-17T06:23:19.357Z,100906.62
2018-09-17T06:24:25.508Z,100908.59
2018-09-17T06:25:31.765Z,100911.98
2018-09-17T06:26:38.023Z,100910.07
2018-09-17T06:27:44.440Z,100913.42
2018-09-17T06:28:50.483Z,100909.36
2018-09-17T06:29:56.897Z,100913.88
2018-09-17T06:31:03.610Z,100918.61
2018-09-17T06:32:10.522Z,100915.81
2018-09-17T06:33:16.875Z,100913.86
2018-09-17T06:34:23.014Z,100909.52
2018-09-17T06:35:29.203Z,100909.69
2018-09-17T06:36:35.285Z,100910.95
2018-09-17T06:37:41.875Z,100909.04
2018-09-17T06:38:48.301Z,100906.09
2018-09-17T06:39:54.578Z,100904.91
2018-09-17T06:41:00.520Z,100905.80
2018-09-17T06:42:06.686Z,100910.15
2018-09-17T06:43:12.989Z,100907.00
2018-09-17T06:44:19.245Z,100910.69
2018-09-17T06:45:24.897Z,100907.34
2018-09-17T06:46:30.858Z,100917.02
2018-09-17T06:47:36.824Z,100912.13
2018-09-17T06:48:42.766Z,100907.05
2018-09-17T06:49:48.751Z,100919.45
2018-09-17T06:50:54.735Z,100908.35
2018-09-17T06:52:00.972Z,100908.63
2018-09-17T06:53:06.920Z,100906.97
2018-09-17T06:54:13.164Z,100903.17
2018-09-17T06:55:19.335Z,100904.00
2018-09-17T06:56:25.426Z,100905.19
2018-09-17T06:57:31.741Z,100902.44
2018-09-17T06:58:38.041Z,100901.76
2018-09-17T06:59:44.208Z,100900.81
2018-09-17T07:00:50.567Z,100897.66
2018-09-17T07:01:56.684Z,100894.92
2018-09-17T07:03:02.818Z,100897.22
2018-09-17T07:04:08.998Z,100893.71
2018-09-17T07:05:16.022Z,100897.67
2018-09-17T07:06:22.425Z,100888.06
2018-09-17T07:07:29.047Z,100892.16
2018-09-17T07:08:35.552Z,100890.09
2018-09-17T07:09:41.889Z,100887.94
2018-09-17T07:10:48.036Z,100880.97
2018-09-17T07:11:53.828Z,100880.95
2018-09-17T07:13:00.572Z,100884.02
2018-09-17T07:14:07.077Z,100881.88
2018-09-17T07:15:13.417Z,100874.35
2018-09-17T07:16:19.893Z,100873.20
2018-09-17T07:17:26.373Z,100874.51
2018-09-17T07:18:32.479Z,100870.30
2018-09-17T07:19:39.715Z,100870.27
2018-09-17T07:20:46.298Z,100870.17
2018-09-17T07:21:52.532Z,100868.02
2018-09-17T07:22:58.498Z,100870.08
2018-09-17T07:24:04.594Z,100862.80
2018-09-17T07:25:11.001Z,100860.32
2018-09-17T07:26:17.094Z,100858.73
2018-09-17T07:27:23.497Z,100859.41
2018-09-17T07:28:29.777Z,100862.22
2018-09-17T07:29:36.110Z,100860.02
2018-09-17T07:30:42.465Z,100858.38
2018-09-17T07:31:48.528Z,100857.52
2018-09-17T07:32:55.272Z,100866.34
2018-09-17T07:34:01.222Z,100866.70
2018-09-17T07:35:07.470Z,100868.38
2018-09-17T07:36:13.531Z,100874.45
2018-09-17T07:37:19.629Z,100876.02
2018-09-17T07:38:25.614Z,100869.70
2018-09-17T07:39:31.853Z,100872.30
2018-09-17T07:40:37.790Z,100877.82
2018-09-17T07:41:43.794Z,100880.86
2018-09-17T07:42:50.006Z,100875.42
2018-09-17T07:43:55.992Z,100878.38
2018-09-17T07:45:02.242Z,100880.38
2018-09-17T07:46:08.213Z,100877.88
2018-09-17T07:47:14.200Z,100879.64
2018-09-17T07:48:20.161Z,100878.28
2018-09-17T07:49:26.256Z,100881.08
2018-09-17T07:50:32.370Z,100882.02
2018-09-17T07:51:38.807Z,100878.12
2018-09-17T07:52:45.069Z,100877.57
2018-09-17T07:53:51.698Z,100881.55
2018-09-17T07:54:57.652Z,100876.24
2018-09-17T07:56:03.602Z,100874.09
2018-09-17T07:57:09.854Z,100877.30
2018-09-17T07:58:15.786Z,100875.22
2018-09-17T07:59:22.022Z,100875.59
2018-09-17T08:00:28.090Z,100870.16
2018-09-17T08:01:34.345Z,100876.37
2018-09-17T08:02:40.728Z,100872.53
2018-09-17T08:03:46.868Z,100871.91
2018-09-17T08:04:53.210Z,100866.09
2018-09-17T08:05:59.253Z,100866.27
2018-09-17T08:07:05.143Z,100865.77
2018-09-17T08:08:11.291Z,100865.98
2018-09-17T08:09:18.618Z,100868.63
2018-09-17T08:10:25.048Z,100867.60
2018-09-17T08:11:31.166Z,100868.92
2018-09-17T08:12:38.426Z,100870.47
2018-09-17T08:13:44.543Z,100868.25
2018-09-17T08:14:50.628Z,100872.75
2018-09-17T08:15:56.573Z,100869.13
2018-09-17T08:17:02.323Z,100871.73
2018-09-17T08:18:08.742Z,100869.81
2018-09-17T08:19:14.973Z,100880.14
2018-09-17T08:20:21.237Z,100880.66
2018-09-17T08:21:27.488Z,100873.69
2018-09-17T08:22:33.711Z,100881.86
2018-09-17T08:23:39.937Z,100880.25
2018-09-17T08:24:45.932Z,100880.42
2018-09-17T08:25:52.157Z,100883.70
2018-09-17T08:26:58.395Z,100884.02
2018-09-17T08:28:04.270Z,100891.95
2018-09-17T08:29:10.501Z,100889.79
2018-09-17T08:30:16.770Z,100896.20
2018-09-17T08:31:23.098Z,100894.11
2018-09-17T08:32:29.524Z,100892.50
2018-09-17T08:33:35.552Z,100893.92
2018-09-17T08:34:41.524Z,100898.13
2018-09-17T08:35:47.482Z,100888.56
2018-09-17T08:36:54.865Z,100890.58
2018-09-17T08:38:01.081Z,100889.80
2018-09-17T08:39:06.345Z,100892.72
2018-09-17T08:40:12.618Z,100893.77
2018-09-17T08:41:18.662Z,100888.39
2018-09-17T08:42:24.899Z,100891.07
2018-09-17T08:43:31.169Z,100890.39
2018-09-17T08:44:37.420Z,100887.05
2018-09-17T08:45:43.705Z,100886.06
2018-09-17T08:46:50.102Z,100885.88
2018-09-17T08:47:56.330Z,100881.75
2018-09-17T08:49:02.285Z,100879.42
2018-09-17T08:50:07.932Z,100877.93
2018-09-17T08:51:13.654Z,100878.63
2018-09-17T08:52:19.981Z,100877.42
2018-09-17T08:53:26.368Z,100874.65
2018-09-17T08:54:33.279Z,100875.88
2018-09-17T08:55:39.300Z,100878.48
2018-09-17T08:56:45.248Z,100879.28
2018-09-17T08:57:50.973Z,100876.23
2018-09-17T08:58:56.688Z,100877.72
2018-09-17T09:00:02.356Z,100880.06
2018-09-17T09:01:08.382Z,100873.44
2018-09-17T09:02:14.400Z,100878.16
2018-09-17T09:03:20.149Z,100877.89
2018-09-17T09:04:27.278Z,100874.27
2018-09-17T09:05:33.312Z,100868.95
2018-09-17T09:06:39.053Z,100872.58
2018-09-17T09:07:44.779Z,100872.67
2018-09-17T09:08:51.703Z,100865.85
2018-09-17T09:09:57.748Z,100867.51
2018-09-17T09:11:03.403Z,100865.38
2018-09-17T09:12:09.596Z,100871.02
2018-09-17T09:13:15.583Z,100873.60
2018-09-17T09:14:21.609Z,100870.13
2018-09-17T09:15:27.364Z,100868.67
2018-09-17T09:16:33.308Z,100866.50
2018-09-17T09:17:39.231Z,100870.99
2018-09-17T09:18:45.475Z,100865.17
2018-09-17T09:19:51.701Z,100868.89
2018-09-17T09:20:57.958Z,100872.00
2018-09-17T09:22:04.271Z,100865.98
2018-09-17T09:23:10.551Z,100865.08
2018-09-17T09:24:16.792Z,100856.78
2018-09-17T09:25:23.053Z,100864.53
2018-09-17T09:26:29.018Z,100858.44
2018-09-17T09:27:35.266Z,100855.33
2018-09-17T09:28:41.238Z,100857.34
2018-09-17T09:29:47.234Z,100847.47
2018-09-17T09:30:53.195Z,100851.83
2018-09-17T09:31:59.175Z,100855.20
2018-09-17T09:33:05.154Z,100853.20
2018-09-17T09:34:12.043Z,100853.91
2018-09-17T09:35:18.024Z,100856.75
2018-09-17T09:36:24.963Z,100853.89
2018-09-17T09:37:31.858Z,100859.20
2018-09-17T09:38:38.134Z,100858.70
2018-09-17T09:39:44.347Z,100861.63
2018-09-17T09:40:50.646Z,100866.20
2018-09-17T09:41:56.879Z,100867.00
2018-09-17T09:43:02.894Z,100860.17
2018-09-17T09:44:09.821Z,100869.30
2018-09-17T09:45:15.800Z,100862.45
2018-09-17T09:46:22.109Z,100864.60
2018-09-17T09:47:28.328Z,100862.77
2018-09-17T09:48:34.569Z,100868.88
2018-09-17T09:49:40.813Z,100872.37
2018-09-17T09:50:47.077Z,100867.54
2018-09-17T09:51:53.319Z,100868.36
2018-09-17T09:52:59.321Z,100863.95
2018-09-17T09:54:05.225Z,100862.53
2018-09-17T09:55:11.465Z,100859.52
2018-09-17T09:56:17.722Z,100862.89
2018-09-17T09:57:24.863Z,100862.85
2018-09-17T09:58:31.117Z,100862.34
2018-09-17T09:59:37.380Z,100864.27
2018-09-17T10:00:43.624Z,100862.84
2018-09-17T10:01:49.363Z,100858.55
2018-09-17T10:02:55.102Z,100851.70
2018-09-17T10:04:01.211Z,100845.14
2018-09-17T10:05:06.968Z,100849.52
2018-09-17T10:06:12.962Z,100842.22
2018-09-17T10:07:19.232Z,100848.52
2018-09-17T10:08:25.465Z,100846.63
2018-09-17T10:09:32.400Z,100840.11
2018-09-17T10:10:44.247Z,100842.16
2018-09-17T10:13:39.764Z,100834.02
2018-09-17T10:15:13.632Z,100838.31
2018-09-17T10:16:32.900Z,100836.14
2018-09-17T10:17:38.891Z,100834.29
2018-09-17T10:20:17.172Z,100829.70
2018-09-17T10:21:23.169Z,100832.41
2018-09-17T10:22:29.136Z,100833.45
2018-09-17T10:23:35.117Z,100827.17
2018-09-17T10:24:41.371Z,100831.47
2018-09-17T10:25:47.591Z,100834.80
2018-09-17T10:26:53.856Z,100828.86
2018-09-17T10:27:59.792Z,100824.22
2018-09-17T10:29:05.741Z,100824.48
2018-09-17T10:30:11.616Z,100829.62
2018-09-17T10:31:17.873Z,100828.02
2018-09-17T10:32:24.123Z,100820.22
2018-09-17T10:33:30.393Z,100817.87
2018-09-17T10:34:36.624Z,100811.75
2018-09-17T10:35:42.604Z,100808.67
2018-09-17T10:36:48.882Z,100821.90
2018-09-17T10:37:55.136Z,100818.10
2018-09-17T10:39:01.373Z,100810.88
2018-09-17T10:40:06.625Z,100806.48
2018-09-17T10:41:12.582Z,100812.41
2018-09-17T10:42:18.870Z,100813.94
2018-09-17T10:43:25.108Z,100814.65
2018-09-17T10:44:31.080Z,100818.17
2018-09-17T10:45:37.287Z,100816.79
2018-09-17T10:46:43.558Z,100814.30
2018-09-17T10:47:49.680Z,100813.78
2018-09-17T10:48:56.529Z,100804.91
2018-09-17T10:50:02.505Z,100815.17
2018-09-17T10:51:08.461Z,100810.29
2018-09-17T10:52:14.776Z,100815.05
2018-09-17T10:53:20.740Z,100806.81
2018-09-17T10:54:26.699Z,100807.73
2018-09-17T10:55:32.961Z,100802.06
2018-09-17T10:56:39.217Z,100807.42
2018-09-17T10:57:45.485Z,100804.98
2018-09-17T10:58:51.440Z,100807.53
2018-09-17T10:59:57.387Z,100801.16
2018-09-17T11:01:03.399Z,100800.35
2018-09-17T11:02:09.368Z,100801.73
2018-09-17T11:03:15.622Z,100800.72
2018-09-17T11:04:21.918Z,100794.92
2018-09-17T11:05:28.172Z,100793.75
2018-09-17T11:06:33.828Z,100792.56
2018-09-17T11:07:39.796Z,100790.34
2018-09-17T11:08:45.741Z,100787.10
2018-09-17T11:09:51.408Z,100790.74
2018-09-17T11:10:57.070Z,100786.53
2018-09-17T11:12:02.757Z,100791.97
2018-09-17T11:13:08.697Z,100785.98
2018-09-17T11:14:14.677Z,100786.52
2018-09-17T11:15:20.969Z,100785.66
2018-09-17T11:16:27.195Z,100784.38
2018-09-17T11:17:33.190Z,100784.03
2018-09-17T11:18:39.365Z,100773.97
2018-09-17T11:19:45.063Z,100780.52
2018-09-17T11:20:50.996Z,100774.28
2018-09-17T11:21:56.678Z,100778.38
2018-09-17T11:23:02.651Z,100772.78
2018-09-17T11:24:08.605Z,100778.56
2018-09-17T11:25:14.325Z,100775.27
2018-09-17T11:26:21.392Z,100769.61
2018-09-17T11:27:27.376Z,100772.03
2018-09-17T11:28:33.350Z,100772.06
2018-09-17T11:29:39.284Z,100766.04
2018-09-17T11:30:44.986Z,100765.86
2018-09-17T11:31:50.643Z,100764.58
2018-09-17T11:32:56.605Z,100768.69
2018-09-17T11:34:02.574Z,100765.80
2018-09-17T11:35:08.226Z,100764.02
2018-09-17T11:36:14.161Z,100753.83
2018-09-17T11:37:20.131Z,100763.18
2018-09-17T11:38:26.381Z,100768.81
2018-09-17T11:39:31.741Z,100767.26
2018-09-17T11:40:37.416Z,100761.88
2018-09-17T11:41:43.059Z,100766.41
2018-09-17T11:42:48.773Z,100765.02
2018-09-17T11:43:54.739Z,100761.98
2018-09-17T11:45:00.701Z,100761.16
2018-09-17T11:46:06.890Z,100761.95
2018-09-17T11:47:12.578Z,100761.88
2018-09-17T11:48:18.267Z,100766.59
2018-09-17T11:49:24.151Z,100759.66
2018-09-17T11:50:29.771Z,100766.17
2018-09-17T11:51:35.454Z,100761.50
2018-09-17T11:52:41.161Z,100757.41
2018-09-17T11:53:47.120Z,100759.33
2018-09-17T11:54:52.782Z,100765.80
2018-09-17T11:55:58.737Z,100761.39
2018-09-17T11:57:04.695Z,100765.96
2018-09-17T11:58:10.699Z,100755.73
2018-09-17T11:59:16.693Z,100753.42
2018-09-17T12:00:22.407Z,100755.18
2018-09-17T12:01:28.137Z,100752.44
2018-09-17T12:02:33.841Z,100756.13
2018-09-17T12:03:39.570Z,100751.05
2018-09-17T12:04:46.211Z,100756.67
2018-09-17T12:05:51.947Z,100752.19
2018-09-17T12:06:57.378Z,100745.67
2018-09-17T12:08:02.819Z,100744.59
2018-09-17T12:09:08.818Z,100741.61
2018-09-17T12:10:15.598Z,100738.94
2018-09-17T12:11:21.486Z,100746.19
2018-09-17T12:12:27.384Z,100739.19
2018-09-17T12:13:33.359Z,100743.27
2018-09-17T12:14:39.293Z,100737.69
2018-09-17T12:15:45.256Z,100743.47
2018-09-17T12:16:51.192Z,100741.12
2018-09-17T12:17:56.889Z,100740.40
2018-09-17T12:19:03.138Z,100739.33
2018-09-17T12:20:08.481Z,100738.06
2018-09-17T12:21:14.148Z,100734.47
2018-09-17T12:22:20.100Z,100724.63
2018-09-17T12:23:26.077Z,100732.60
2018-09-17T12:24:32.037Z,100730.19
2018-09-17T12:25:37.975Z,100730.86
2018-09-17T12:26:43.865Z,100729.30
2018-09-17T12:27:49.825Z,100728.68
2018-09-17T12:28:56.462Z,100728.31
2018-09-17T12:30:02.425Z,100725.11
2018-09-17T12:31:08.398Z,100724.93
2018-09-17T12:32:14.350Z,100720.39
2018-09-17T12:33:20.316Z,100720.05
2018-09-17T12:34:26.287Z,100720.91
2018-09-17T12:35:32.292Z,100720.82
2018-09-17T12:36:38.225Z,100721.95
2018-09-17T12:37:44.166Z,100717.09
2018-09-17T12:38:50.140Z,100721.09